Terminal Aerodrome Forecast
Issued by NWS Louisville, KY

Home | Current Version | Previous Version | Graphics & Text | Print | Product List | Glossary On
Versions: 1 2 3 4 5 6 7 8 9 10 11 12 13 14 15 16
000
FTUS43 KLMK 271700
TAFBWG
TAF
KBWG 271728Z 2718/2818 22010G17KT P6SM VCTS SCT025CB BKN040
      TEMPO 2718/2720 VRB20G30KT 2SM TSRA BKN025CB
     FM272300 21008KT P6SM FEW040 BKN120
     FM280100 23004KT P6SM BKN100
     FM280900 00000KT 4SM BR SCT250
     FM281400 14005KT P6SM SCT030 BKN250=

USA.gov is the U.S. government's official web portal to all federal, state and local government web resources and services.